Time;durP1;ratioP1;P1;durP2;ratioP2;P2;SDS_P1;SDS_P2;PMS_P1;PMS_P2;Temp;Humidity;BMP_temperature;BMP_pressure;BME280_temperature;BME280_humidity;BME280_pressure;Samples;Min_cycle;Max_cycle;Signal;HPM_P1;HPM_P2
2023/08/03 00:00:13;;;;;;;3.95;2.03;;;;;;;22.67;48.76;98723.38;7764114;32;37781;-83
2023/08/03 00:04:29;;;;;;;4.28;1.85;;;;;;;22.56;49.24;98722.44;7763472;32;39524;-82
2023/08/03 00:08:45;;;;;;;3.90;1.73;;;;;;;22.39;49.55;98719.09;7738310;32;41108;-83
2023/08/03 00:13:02;;;;;;;6.12;2.10;;;;;;;22.26;50.20;98718.47;7763003;32;38029;-83
2023/08/03 00:17:18;;;;;;;3.00;1.90;;;;;;;22.23;50.37;98723.97;7765218;32;37953;-82
2023/08/03 00:21:35;;;;;;;5.18;1.62;;;;;;;22.26;50.33;98712.13;7764415;32;39093;-83
2023/08/03 00:25:51;;;;;;;3.47;1.90;;;;;;;22.17;50.89;98714.41;7765061;32;40771;-83
2023/08/03 00:30:07;;;;;;;3.42;1.98;;;;;;;22.24;50.86;98714.50;7744583;32;37892;-83
2023/08/03 00:34:24;;;;;;;3.30;1.70;;;;;;;22.21;51.04;98704.91;7738045;32;37071;-83
2023/08/03 00:38:40;;;;;;;4.95;2.03;;;;;;;22.11;51.65;98695.28;7738022;32;40008;-83
2023/08/03 00:42:57;;;;;;;4.97;2.28;;;;;;;22.18;51.61;98688.22;7745296;32;40813;-82
2023/08/03 00:47:14;;;;;;;8.27;2.47;;;;;;;22.26;51.48;98696.25;7764583;32;37890;-83
2023/08/03 00:51:30;;;;;;;4.12;2.15;;;;;;;21.96;52.40;98693.50;7751729;32;36981;-83
2023/08/03 00:55:46;;;;;;;6.00;2.47;;;;;;;21.97;52.28;98692.31;7736831;32;39229;-83
2023/08/03 01:00:02;;;;;;;7.22;2.50;;;;;;;22.05;52.13;98677.34;7737627;32;41272;-83
2023/08/03 01:04:18;;;;;;;7.43;2.25;;;;;;;22.05;52.29;98671.03;7737547;32;37759;-83
2023/08/03 01:08:35;;;;;;;6.57;2.45;;;;;;;22.07;52.46;98672.22;7763489;32;37881;-83
2023/08/03 01:12:51;;;;;;;9.32;2.33;;;;;;;22.00;52.91;98671.34;7761648;32;39348;-83
2023/08/03 01:17:07;;;;;;;6.10;2.60;;;;;;;21.76;53.60;98668.63;7737192;32;40780;-83
2023/08/03 01:21:25;;;;;;;4.97;2.50;;;;;;;21.82;53.58;98685.78;7737051;32;37869;-83
2023/08/03 01:25:41;;;;;;;5.85;2.25;;;;;;;21.79;53.75;98680.19;7735986;32;37850;-83
2023/08/03 01:29:58;;;;;;;4.78;2.67;;;;;;;21.67;54.21;98676.44;7737692;32;39431;-83
2023/08/03 01:34:14;;;;;;;5.53;2.20;;;;;;;21.59;54.67;98682.25;7736691;32;40729;-83
2023/08/03 01:38:30;;;;;;;6.32;2.90;;;;;;;21.60;54.51;98692.19;7757665;32;37849;-82
2023/08/03 01:42:46;;;;;;;4.50;2.15;;;;;;;21.50;54.80;98688.84;7763407;32;37860;-83
2023/08/03 01:47:02;;;;;;;5.57;2.58;;;;;;;21.55;54.82;98684.97;7763465;32;39278;-82
2023/08/03 01:51:19;;;;;;;4.78;2.05;;;;;;;21.50;55.20;98677.75;7763097;32;40715;-82
2023/08/03 01:55:35;;;;;;;4.43;2.40;;;;;;;21.54;55.41;98677.81;7763174;32;37786;-83
2023/08/03 01:59:51;;;;;;;5.25;2.20;;;;;;;21.38;56.12;98675.94;7761966;32;37208;-82
2023/08/03 02:04:07;;;;;;;6.37;2.50;;;;;;;21.36;56.39;98671.97;7763071;32;40137;-83
2023/08/03 02:08:24;;;;;;;6.75;2.30;;;;;;;21.45;56.29;98671.69;7765894;32;40128;-83
2023/08/03 02:12:40;;;;;;;7.40;2.53;;;;;;;21.24;57.04;98672.94;7766630;32;38550;-83
2023/08/03 02:16:56;;;;;;;5.30;2.58;;;;;;;21.27;57.11;98672.22;7739692;32;37064;-82
2023/08/03 02:21:12;;;;;;;4.40;2.20;;;;;;;21.30;57.13;98663.16;7742725;32;39184;-82
2023/08/03 02:25:29;;;;;;;5.68;2.40;;;;;;;21.14;57.65;98665.25;7766486;32;40494;-82
2023/08/03 02:29:45;;;;;;;6.18;2.55;;;;;;;21.11;57.86;98666.00;7766413;32;37801;-83
2023/08/03 02:34:01;;;;;;;5.45;2.40;;;;;;;21.14;57.88;98660.50;7766315;32;37195;-83
2023/08/03 02:38:17;;;;;;;6.05;2.40;;;;;;;21.13;58.07;98661.69;7766467;32;39367;-83
2023/08/03 02:42:34;;;;;;;3.78;2.08;;;;;;;20.98;58.51;98657.88;7766214;32;40827;-83
2023/08/03 02:46:50;;;;;;;3.58;2.20;;;;;;;21.07;58.36;98656.81;7743987;32;38729;-83
2023/08/03 02:51:06;;;;;;;4.72;2.35;;;;;;;20.93;58.77;98672.03;7739633;32;37107;-83
2023/08/03 02:55:22;;;;;;;3.00;2.20;;;;;;;20.96;58.80;98684.34;7739245;32;39206;-82
2023/08/03 02:59:38;;;;;;;7.53;2.40;;;;;;;21.08;58.62;98673.09;7739110;32;39767;-83
2023/08/03 03:03:55;;;;;;;7.37;2.45;;;;;;;20.95;59.04;98680.75;7738947;32;37765;-83
2023/08/03 03:08:11;;;;;;;3.10;2.05;;;;;;;21.04;58.81;98676.94;7751732;32;37244;-82
2023/08/03 03:12:27;;;;;;;4.78;2.35;;;;;;;20.94;59.08;98690.25;7766080;32;39305;-82
2023/08/03 03:16:43;;;;;;;3.05;1.95;;;;;;;20.82;59.58;98687.66;7765470;32;40001;-82
2023/08/03 03:20:59;;;;;;;4.25;2.30;;;;;;;21.03;58.89;98692.00;7765231;32;37925;-83
2023/08/03 03:25:16;;;;;;;5.15;1.92;;;;;;;20.92;59.21;98681.53;7765360;32;37150;-82
2023/08/03 03:29:32;;;;;;;6.18;2.53;;;;;;;20.91;59.28;98688.22;7761386;32;39404;-82
2023/08/03 03:33:48;;;;;;;5.15;2.20;;;;;;;21.09;58.85;98696.84;7738809;32;39814;-83
2023/08/03 03:38:05;;;;;;;3.67;1.90;;;;;;;21.05;58.97;98686.88;7738683;32;37718;-82
2023/08/03 03:42:21;;;;;;;3.67;1.85;;;;;;;21.16;58.68;98690.63;7738617;32;37834;-82
2023/08/03 03:46:37;;;;;;;3.28;1.95;;;;;;;21.33;58.25;98690.13;7738567;32;39490;-82
2023/08/03 03:50:54;;;;;;;3.60;2.08;;;;;;;21.23;58.70;98684.41;7738544;32;40135;-83
2023/08/03 03:55:10;;;;;;;4.40;1.95;;;;;;;21.24;58.66;98686.81;7739222;32;38000;-83
2023/08/03 03:59:26;;;;;;;4.07;2.05;;;;;;;21.20;58.71;98691.50;7738645;32;37031;-82
2023/08/03 04:03:42;;;;;;;3.05;2.00;;;;;;;21.16;58.93;98679.53;7737299;32;39924;-82
2023/08/03 04:07:59;;;;;;;4.37;2.12;;;;;;;21.23;58.76;98676.09;7747923;32;39893;-82
2023/08/03 04:12:15;;;;;;;4.50;2.20;;;;;;;21.09;59.24;98679.41;7765227;32;38596;-82
2023/08/03 04:16:31;;;;;;;5.37;2.60;;;;;;;21.14;59.12;98676.34;7751319;32;37174;-82
2023/08/03 04:20:47;;;;;;;3.40;1.85;;;;;;;21.17;59.06;98670.84;7738261;32;39400;-82
2023/08/03 04:25:04;;;;;;;3.45;2.15;;;;;;;21.22;58.98;98669.75;7738150;32;40683;-82
2023/08/03 04:29:20;;;;;;;4.35;2.00;;;;;;;21.18;59.08;98671.69;7737373;32;38737;-83
2023/08/03 04:33:36;;;;;;;3.60;1.92;;;;;;;21.23;58.86;98660.28;7765003;32;37937;-82
2023/08/03 04:37:52;;;;;;;3.47;2.05;;;;;;;21.11;59.05;98666.00;7763524;32;39893;-82
2023/08/03 04:42:09;;;;;;;4.72;2.00;;;;;;;21.07;59.24;98677.00;7764631;32;40617;-82
2023/08/03 04:46:25;;;;;;;7.68;2.35;;;;;;;21.23;59.02;98678.84;7764751;32;37863;-82
2023/08/03 04:50:41;;;;;;;3.72;2.22;;;;;;;21.35;58.61;98682.25;7764681;32;36942;-82
2023/08/03 04:54:57;;;;;;;4.45;2.22;;;;;;;21.30;58.84;98690.87;7763026;32;39439;-82
2023/08/03 04:59:13;;;;;;;6.00;2.08;;;;;;;21.13;59.35;98691.38;7764553;32;39945;-83
2023/08/03 05:03:30;;;;;;;6.07;2.30;;;;;;;21.51;58.26;98686.88;7741104;32;38667;-82
2023/08/03 05:07:46;;;;;;;6.10;2.58;;;;;;;21.30;58.98;98698.37;7737346;32;37064;-82
2023/08/03 05:12:02;;;;;;;2.97;2.03;;;;;;;21.67;58.16;98687.53;7737140;32;40308;-82
2023/08/03 05:16:24;;;;;;;4.32;1.95;;;;;;;21.71;58.13;98688.41;7737214;32;40790;-82
2023/08/03 05:20:41;;;;;;;2.67;1.83;;;;;;;22.02;57.46;98689.22;7737203;32;38478;-82
2023/08/03 05:24:57;;;;;;;6.05;2.17;;;;;;;22.27;57.14;98695.13;7751721;32;37132;-82
2023/08/03 05:29:13;;;;;;;4.78;1.73;;;;;;;22.58;56.47;98692.34;7764035;32;39440;-82
2023/08/03 05:33:29;;;;;;;4.97;2.08;;;;;;;22.63;56.17;98692.00;7762869;32;41011;-82
2023/08/03 05:37:46;;;;;;;3.53;2.03;;;;;;;22.84;55.53;98683.88;7763259;32;38733;-82
2023/08/03 05:42:03;;;;;;;3.80;2.12;;;;;;;22.83;55.61;98679.50;7765379;32;37034;-82
2023/08/03 05:46:19;;;;;;;3.87;2.33;;;;;;;22.85;55.85;98682.72;7766426;32;39415;-83
2023/08/03 05:50:46;;;;;;;3.85;1.90;;;;;;;23.09;55.35;98680.56;7766882;32;40111;-83
2023/08/03 05:55:02;;;;;;;5.47;1.87;;;;;;;23.37;54.75;98688.38;7766857;32;37850;-73
2023/08/03 05:59:21;;;;;;;4.28;2.15;;;;;;;23.39;54.16;98694.34;7765627;32;38504;-72
2023/08/03 06:03:41;;;;;;;5.30;2.35;;;;;;;23.72;53.79;98694.59;7761942;32;40121;-70
2023/08/03 06:07:57;;;;;;;5.20;2.10;;;;;;;23.95;53.53;98702.72;7756866;32;40048;-71
2023/08/03 06:12:16;;;;;;;3.60;2.33;;;;;;;24.11;52.69;98697.66;7755340;32;37977;-71
2023/08/03 06:16:32;;;;;;;7.50;2.55;;;;;;;24.32;52.84;98699.75;7752656;32;37817;-72
2023/08/03 06:20:53;;;;;;;4.05;2.37;;;;;;;24.49;52.68;98705.75;7765919;32;39112;-73
2023/08/03 06:25:09;;;;;;;6.25;2.35;;;;;;;24.55;52.21;98704.25;7764421;32;40719;-73
2023/08/03 06:29:26;;;;;;;5.32;2.58;;;;;;;24.38;52.47;98700.94;7756688;32;39500;-71
2023/08/03 06:33:44;;;;;;;5.97;2.72;;;;;;;24.43;52.65;98710.12;7742237;32;37279;-72
2023/08/03 06:38:02;;;;;;;5.22;1.92;;;;;;;24.57;52.01;98710.22;7764259;32;39281;-73
2023/08/03 06:42:18;;;;;;;5.50;2.40;;;;;;;24.34;52.56;98722.41;7765619;32;39940;-72
2023/08/03 06:46:34;;;;;;;5.82;2.67;;;;;;;24.31;53.27;98722.41;7766394;32;37893;-84
2023/08/03 06:50:51;;;;;;;8.30;2.40;;;;;;;24.24;53.65;98725.94;7781450;32;36746;-85
2023/08/03 06:55:07;;;;;;;4.15;2.50;;;;;;;24.08;54.48;98739.41;7763992;32;39428;-86
2023/08/03 06:59:24;;;;;;;9.90;2.67;;;;;;;24.31;53.82;98744.69;7765610;32;39928;-84
2023/08/03 07:03:40;;;;;;;5.12;2.58;;;;;;;24.03;54.89;98756.47;7765901;32;38594;-84
2023/08/03 07:07:56;;;;;;;8.00;2.80;;;;;;;24.28;53.71;98760.19;7766045;32;37701;-85
2023/08/03 07:12:12;;;;;;;4.90;2.28;;;;;;;24.12;54.24;98779.19;7766046;32;39088;-84
2023/08/03 07:16:30;;;;;;;3.72;2.22;;;;;;;24.21;54.37;98778.84;7765506;32;40843;-85
2023/08/03 07:20:46;;;;;;;7.30;2.97;;;;;;;24.01;55.19;98770.75;7761852;32;38614;-84
2023/08/03 07:25:04;;;;;;;6.95;2.40;;;;;;;24.07;55.76;98782.31;7755720;32;38009;-84
2023/08/03 07:29:20;;;;;;;6.10;2.87;;;;;;;24.12;55.95;98779.19;7738565;32;39405;-83
2023/08/03 07:33:36;;;;;;;10.10;2.60;;;;;;;24.04;55.77;98783.88;7761411;32;40057;-84
2023/08/03 07:37:52;;;;;;;5.40;2.70;;;;;;;24.00;56.18;98781.09;7752450;32;37643;-84
2023/08/03 07:42:08;;;;;;;5.60;2.67;;;;;;;24.24;54.92;98790.00;7762812;32;37672;-85
2023/08/03 07:46:25;;;;;;;4.95;2.78;;;;;;;24.15;55.28;98806.25;7763429;32;39097;-83
2023/08/03 07:50:41;;;;;;;5.72;2.37;;;;;;;24.07;56.02;98812.94;7764884;32;40807;-72
2023/08/03 07:54:57;;;;;;;4.70;2.78;;;;;;;24.11;55.66;98822.94;7764542;32;38164;-87
2023/08/03 07:59:13;;;;;;;6.78;2.75;;;;;;;24.08;56.16;98817.34;7756015;32;266463;-84
2023/08/03 08:03:30;;;;;;;7.43;2.75;;;;;;;24.22;55.39;98827.78;7764390;32;39311;-84
2023/08/03 08:07:46;;;;;;;5.35;3.22;;;;;;;24.48;54.87;98823.97;7764497;32;39876;-84
2023/08/03 08:12:04;;;;;;;5.28;3.37;;;;;;;24.35;54.42;98835.44;7764077;32;38782;-84
2023/08/03 08:16:20;;;;;;;7.00;3.03;;;;;;;24.79;53.84;98832.91;7764422;32;36214;-84
2023/08/03 08:20:37;;;;;;;10.68;3.30;;;;;;;25.04;53.49;98833.00;7762791;32;38992;-83
2023/08/03 08:24:53;;;;;;;9.18;3.37;;;;;;;25.24;52.71;98836.28;7751667;32;40775;-84
2023/08/03 08:29:09;;;;;;;5.97;3.60;;;;;;;25.05;53.70;98846.56;7751916;32;37663;-84
2023/08/03 08:33:26;;;;;;;7.55;3.83;;;;;;;24.32;55.21;98855.69;7765055;32;38001;-83
2023/08/03 08:37:42;;;;;;;6.87;4.00;;;;;;;25.12;54.48;98860.53;7764889;32;39270;-85
2023/08/03 08:41:58;;;;;;;6.47;3.50;;;;;;;25.24;53.84;98858.59;7764495;32;40804;-83
2023/08/03 08:46:14;;;;;;;7.22;3.97;;;;;;;25.06;54.49;98870.47;7746302;32;37665;-83
2023/08/03 08:50:31;;;;;;;8.60;4.28;;;;;;;25.28;53.51;98876.16;7737614;32;37219;-83
2023/08/03 08:54:48;;;;;;;12.02;4.75;;;;;;;25.66;52.57;98869.09;7749691;32;39299;-82
2023/08/03 08:59:07;;;;;;;7.47;4.70;;;;;;;25.66;52.72;98857.09;7764685;32;39240;-83
2023/08/03 09:03:26;;;;;;;13.60;5.22;;;;;;;25.37;53.02;98851.50;7764447;32;38216;-83
2023/08/03 09:07:43;;;;;;;11.50;5.45;;;;;;;25.47;52.96;98856.28;7764474;32;37922;-84
2023/08/03 09:11:59;;;;;;;9.27;4.82;;;;;;;25.96;51.94;98859.56;7763186;32;40111;-85
2023/08/03 09:16:24;;;;;;;9.85;5.00;;;;;;;25.57;52.76;98859.50;7763540;32;39936;-85
2023/08/03 09:20:40;;;;;;;7.30;4.65;;;;;;;25.22;53.47;98863.75;7764234;32;37369;-85
2023/08/03 09:25:04;;;;;;;12.40;5.10;;;;;;;25.64;52.64;98882.63;7764091;32;37993;-84
2023/08/03 09:29:21;;;;;;;10.13;4.22;;;;;;;26.11;52.54;98882.69;7763815;32;39300;-85
2023/08/03 09:33:39;;;;;;;7.20;4.43;;;;;;;26.44;50.67;98900.25;7763994;32;39031;-84
2023/08/03 09:37:56;;;;;;;7.97;4.37;;;;;;;25.92;52.66;98892.22;7753485;32;38640;-85
2023/08/03 09:42:12;;;;;;;8.05;4.57;;;;;;;26.42;52.20;98883.91;7763117;32;37775;-84
2023/08/03 09:46:32;;;;;;;7.03;4.25;;;;;;;26.54;51.06;98888.25;7753067;32;38718;-87
2023/08/03 09:50:54;;;;;;;6.03;4.35;;;;;;;26.60;50.23;98900.62;7758066;32;41286;-85
2023/08/03 09:55:19;;;;;;;9.52;4.57;;;;;;;26.74;49.87;98904.63;7759528;32;37593;-87
2023/08/03 09:59:40;;;;;;;9.15;4.47;;;;;;;26.71;50.80;98908.22;7749523;32;37202;-86
2023/08/03 10:04:00;;;;;;;6.77;4.30;;;;;;;27.03;49.24;98908.16;7762861;32;38998;-85
2023/08/03 10:08:36;;;;;;;7.70;4.53;;;;;;;26.88;49.30;98918.56;7746482;32;40781;-83
2023/08/03 10:12:57;;;;;;;6.25;4.25;;;;;;;27.50;48.02;98914.34;7748266;32;38473;-86
2023/08/03 10:17:13;;;;;;;6.07;3.78;;;;;;;28.27;47.52;98898.69;7760055;32;38115;-87
2023/08/03 10:21:30;;;;;;;9.30;4.25;;;;;;;28.42;46.65;98905.75;7734813;32;39311;-85
2023/08/03 10:26:00;;;;;;;7.03;3.92;;;;;;;28.77;44.15;98892.62;7738351;32;39755;-84
2023/08/03 10:30:17;;;;;;;12.88;4.03;;;;;;;28.52;44.47;98909.66;7765985;32;38511;-82
2023/08/03 10:34:33;;;;;;;5.55;3.47;;;;;;;27.79;46.57;98896.63;7760290;32;36746;-87
2023/08/03 10:38:49;;;;;;;5.87;2.75;;;;;;;27.39;44.49;98882.03;7750196;32;40090;-85
2023/08/03 10:43:09;;;;;;;6.87;3.47;;;;;;;28.68;41.37;98889.50;7741756;32;40073;-85
2023/08/03 10:47:27;;;;;;;6.03;2.25;;;;;;;28.21;39.92;98908.72;7746309;32;39393;-85
2023/08/03 10:51:44;;;;;;;3.78;2.08;;;;;;;29.02;37.14;98903.53;7755595;32;38604;-84
2023/08/03 10:56:05;;;;;;;8.40;2.37;;;;;;;29.50;34.08;98913.00;7745108;32;39490;-84
2023/08/03 11:00:22;;;;;;;3.08;1.83;;;;;;;29.70;34.09;98934.78;7739036;32;39985;-81
2023/08/03 11:04:39;;;;;;;6.45;1.90;;;;;;;29.80;32.93;98933.87;7739240;32;37821;-86
2023/08/03 11:08:56;;;;;;;4.45;2.12;;;;;;;29.46;33.61;98943.16;7743085;32;37079;-85
2023/08/03 11:13:14;;;;;;;7.40;2.83;;;;;;;29.52;34.12;98946.28;7742430;32;39978;-87
2023/08/03 11:17:35;;;;;;;4.95;2.72;;;;;;;29.61;35.57;98934.53;7739928;32;40726;-86
2023/08/03 11:21:52;;;;;;;3.70;1.87;;;;;;;29.86;37.41;98949.06;7738220;32;38667;-73
2023/08/03 11:26:11;;;;;;;2.80;1.55;;;;;;;29.37;34.32;98968.94;7738833;32;37846;-73
2023/08/03 11:30:27;;;;;;;4.10;1.87;;;;;;;29.80;32.49;98972.41;7738911;32;40089;-74
2023/08/03 11:34:44;;;;;;;3.37;1.67;;;;;;;30.62;33.01;98973.97;7738655;32;40013;-75
2023/08/03 11:39:00;;;;;;;4.62;2.10;;;;;;;31.18;31.96;98975.41;7738013;32;38643;-72
2023/08/03 11:43:18;;;;;;;6.28;2.12;;;;;;;31.04;32.24;98985.72;7738055;32;37993;-83
2023/08/03 11:48:01;;;;;;;5.65;2.00;;;;;;;31.50;31.52;98977.63;7738695;32;39600;-82
2023/08/03 11:52:21;;;;;;;4.43;2.05;;;;;;;31.77;32.26;98973.81;7736722;32;40657;-82
2023/08/03 11:56:40;;;;;;;2.47;1.87;;;;;;;32.33;33.70;98973.75;7738396;32;38020;-82
2023/08/03 12:01:02;;;;;;;4.32;2.03;;;;;;;31.93;33.38;98987.16;7738471;32;37095;-81
2023/08/03 12:05:18;;;;;;;3.80;2.33;;;;;;;31.66;33.97;98990.94;7738304;32;39619;-84
2023/08/03 12:09:42;;;;;;;3.97;2.15;;;;;;;31.19;35.73;98991.09;7738158;32;40627;-85
2023/08/03 12:13:59;;;;;;;4.80;2.62;;;;;;;30.19;37.45;99005.56;7738333;32;36930;-83
2023/08/03 12:18:16;;;;;;;3.78;2.00;;;;;;;30.02;38.12;99013.03;7736937;32;37713;-84
2023/08/03 12:22:33;;;;;;;4.10;2.10;;;;;;;29.93;37.32;99016.38;7738080;32;39147;-85
2023/08/03 12:26:50;;;;;;;4.25;2.30;;;;;;;29.46;38.33;99021.75;7738024;32;40759;-84
2023/08/03 12:31:07;;;;;;;5.30;2.45;;;;;;;29.73;39.38;99002.16;7737773;32;38541;-85
2023/08/03 12:35:23;;;;;;;4.07;2.28;;;;;;;29.58;37.75;99007.16;7737874;32;37753;-85
2023/08/03 12:39:39;;;;;;;4.97;2.28;;;;;;;29.64;36.74;99012.31;7737949;32;39515;-83
2023/08/03 12:43:55;;;;;;;4.72;2.25;;;;;;;30.09;36.79;99012.13;7737858;32;40824;-82
2023/08/03 12:48:12;;;;;;;3.65;1.92;;;;;;;29.91;36.47;99018.81;7737727;32;38623;-84
2023/08/03 12:52:33;;;;;;;3.08;1.52;;;;;;;29.69;34.87;99034.31;7736661;32;36980;-84
2023/08/03 12:56:49;;;;;;;4.22;2.22;;;;;;;29.44;34.95;99018.53;7737650;32;39328;-82
2023/08/03 13:01:06;;;;;;;5.53;2.20;;;;;;;29.86;37.11;99022.09;7737686;32;39824;-82
2023/08/03 13:05:22;;;;;;;3.97;2.05;;;;;;;30.01;36.58;99033.13;7737401;32;38597;-82
2023/08/03 13:09:38;;;;;;;6.87;2.12;;;;;;;30.12;35.71;99025.34;7737456;32;37923;-83
2023/08/03 13:13:55;;;;;;;4.57;2.10;;;;;;;30.85;35.77;99000.50;7737378;32;40044;-83
2023/08/03 13:18:11;;;;;;;5.40;2.28;;;;;;;31.34;34.81;99014.91;7737213;32;40801;-82
2023/08/03 13:22:27;;;;;;;4.60;2.30;;;;;;;31.27;33.44;99029.12;7737103;32;38659;-82
2023/08/03 13:26:44;;;;;;;4.95;2.03;;;;;;;31.10;33.17;99044.31;7737120;32;37159;-82
2023/08/03 13:31:00;;;;;;;8.45;2.12;;;;;;;30.68;33.36;99048.22;7736829;32;39103;-82
2023/08/03 13:35:17;;;;;;;6.53;2.17;;;;;;;30.40;33.77;99043.81;7736939;32;40491;-83
2023/08/03 13:39:33;;;;;;;2.17;1.60;;;;;;;29.96;34.02;99045.66;7747599;32;39462;-82
2023/08/03 13:43:49;;;;;;;4.12;1.80;;;;;;;29.39;34.56;99044.31;7763033;32;37106;-82
2023/08/03 13:48:06;;;;;;;5.20;2.10;;;;;;;29.99;34.17;99025.13;7762974;32;40129;-82
2023/08/03 13:52:22;;;;;;;3.10;1.52;;;;;;;30.52;32.29;99034.00;7762687;32;39922;-82
2023/08/03 13:56:38;;;;;;;6.55;1.62;;;;;;;30.62;32.01;99018.97;7762803;32;38711;-82
2023/08/03 14:00:54;;;;;;;4.72;1.52;;;;;;;31.03;31.52;99023.53;7762399;32;36832;-82
2023/08/03 14:05:11;;;;;;;3.42;1.73;;;;;;;30.99;30.92;99034.03;7766718;32;39376;-82
2023/08/03 14:09:28;;;;;;;3.62;1.70;;;;;;;30.64;31.67;99043.88;7765902;32;40761;-82
2023/08/03 14:13:45;;;;;;;4.80;1.75;;;;;;;30.67;32.17;99046.63;7765196;32;37668;-83
2023/08/03 14:18:05;;;;;;;2.87;1.60;;;;;;;30.89;31.92;99044.25;7766394;32;37286;-82
2023/08/03 14:22:24;;;;;;;3.67;1.90;;;;;;;30.70;33.20;99061.84;7765684;32;39644;-82
2023/08/03 14:26:44;;;;;;;3.12;1.75;;;;;;;31.12;31.29;99051.13;7766504;32;40654;-83
2023/08/03 14:31:03;;;;;;;3.03;1.48;;;;;;;30.51;30.92;99054.91;7765189;32;37773;-83
2023/08/03 14:35:19;;;;;;;2.90;1.60;;;;;;;30.39;32.41;99045.06;7766510;32;38091;-83
2023/08/03 14:39:39;;;;;;;1.95;1.40;;;;;;;31.00;30.10;99032.84;7765919;32;38759;-82
2023/08/03 14:43:55;;;;;;;10.32;1.75;;;;;;;31.45;29.44;99021.12;7765778;32;39891;-83
2023/08/03 14:48:14;;;;;;;4.93;1.60;;;;;;;31.43;29.42;99031.25;7766357;32;37357;-83
2023/08/03 14:52:34;;;;;;;3.95;1.45;;;;;;;32.00;28.64;99029.28;7765207;32;37868;-83
2023/08/03 14:56:50;;;;;;;4.20;1.70;;;;;;;32.40;27.55;99048.94;7766190;32;40207;-82
2023/08/03 15:01:10;;;;;;;4.37;1.83;;;;;;;32.31;26.85;99041.09;7765132;32;40498;-83
2023/08/03 15:05:28;;;;;;;8.00;1.70;;;;;;;32.54;28.05;99047.81;7765990;32;38809;-82
2023/08/03 15:09:48;;;;;;;6.70;1.80;;;;;;;32.17;26.93;99033.75;7764235;32;36757;-82
2023/08/03 15:14:05;;;;;;;3.65;1.42;;;;;;;32.03;26.60;99036.88;7764376;32;39121;-83
2023/08/03 15:18:22;;;;;;;3.92;1.58;;;;;;;31.68;28.02;99039.19;7765849;32;39997;-81
2023/08/03 15:22:38;;;;;;;6.18;1.50;;;;;;;31.35;29.51;99053.09;7764816;32;37732;-83
2023/08/03 15:26:56;;;;;;;3.30;1.70;;;;;;;30.64;30.58;99066.38;7765634;32;36999;-82
2023/08/03 15:31:17;;;;;;;6.25;1.70;;;;;;;31.01;29.90;99059.75;7765153;32;38274;-82
2023/08/03 15:35:36;;;;;;;5.68;1.70;;;;;;;30.77;30.42;99078.63;7765221;32;40800;-82
2023/08/03 15:39:55;;;;;;;3.58;1.70;;;;;;;30.60;30.65;99063.63;7763887;32;37861;-83
2023/08/03 15:44:14;;;;;;;3.62;1.30;;;;;;;30.07;31.39;99077.19;7764655;32;36975;-82
2023/08/03 15:48:34;;;;;;;4.25;1.10;;;;;;;29.44;31.19;99085.13;7765746;32;39399;-82
2023/08/03 15:52:53;;;;;;;1.65;1.00;;;;;;;29.53;30.17;99075.00;7764515;32;40021;-81
2023/08/03 15:57:13;;;;;;;2.95;1.42;;;;;;;28.60;31.41;99079.44;7764684;32;37482;-81
2023/08/03 16:01:31;;;;;;;2.75;1.40;;;;;;;28.47;32.36;99069.88;7764858;32;37877;-82
2023/08/03 16:05:47;;;;;;;2.28;1.00;;;;;;;28.65;31.84;99081.81;7764676;32;39300;-82
2023/08/03 16:10:05;;;;;;;2.33;1.20;;;;;;;28.20;32.20;99083.66;7764885;32;39802;-83
2023/08/03 16:14:21;;;;;;;4.43;1.20;;;;;;;28.01;32.51;99082.97;7764517;32;37876;-82
2023/08/03 16:18:37;;;;;;;5.90;1.35;;;;;;;27.66;33.03;99086.66;7765149;32;38620;-83
2023/08/03 16:22:54;;;;;;;9.35;1.15;;;;;;;27.41;34.25;99089.53;7764667;32;39168;-82
2023/08/03 16:27:11;;;;;;;1.45;0.98;;;;;;;27.05;35.34;99092.34;7764528;32;39941;-82
2023/08/03 16:31:31;;;;;;;12.40;1.17;;;;;;;26.97;33.74;99086.75;7764495;32;38744;-81
2023/08/03 16:35:53;;;;;;;3.05;0.95;;;;;;;26.84;34.12;99081.94;7764218;32;37861;-81
2023/08/03 16:40:10;;;;;;;2.55;1.27;;;;;;;26.66;34.90;99073.56;7764560;32;40055;-83
2023/08/03 16:44:27;;;;;;;7.03;1.60;;;;;;;26.60;35.08;99061.94;7764101;32;39781;-82
2023/08/03 16:48:43;;;;;;;1.80;0.88;;;;;;;26.45;34.68;99063.91;7764500;32;37918;-82
2023/08/03 16:52:59;;;;;;;2.17;1.05;;;;;;;26.26;35.10;99067.06;7764285;32;37690;-83
2023/08/03 16:57:18;;;;;;;5.57;1.30;;;;;;;25.98;35.40;99063.81;7764316;32;40289;-82
2023/08/03 17:01:35;;;;;;;2.25;1.17;;;;;;;25.74;35.96;99075.66;7764171;32;39704;-82
2023/08/03 17:05:55;;;;;;;3.37;1.23;;;;;;;25.42;37.50;99096.63;7763711;32;38020;-82
2023/08/03 17:10:12;;;;;;;5.12;1.27;;;;;;;25.52;37.09;99091.47;7761637;32;37110;-82
2023/08/03 17:14:28;;;;;;;1.95;1.15;;;;;;;25.30;37.55;99100.50;7745565;32;40025;-83
2023/08/03 17:18:45;;;;;;;2.72;1.33;;;;;;;25.10;38.02;99094.34;7771565;32;40562;-82
2023/08/03 17:23:02;;;;;;;4.75;1.20;;;;;;;25.02;38.54;99112.22;7776749;32;37934;-81
2023/08/03 17:27:19;;;;;;;2.65;1.23;;;;;;;24.86;39.33;99122.84;7763329;32;37980;-82
2023/08/03 17:31:38;;;;;;;2.12;1.20;;;;;;;24.76;39.92;99123.53;7759051;32;39274;-82
2023/08/03 17:35:54;;;;;;;4.12;1.40;;;;;;;24.76;40.14;99124.34;7755078;32;40897;-81
2023/08/03 17:40:11;;;;;;;5.03;1.40;;;;;;;24.67;40.86;99118.28;7758767;32;38669;-86
2023/08/03 17:44:29;;;;;;;3.65;1.25;;;;;;;24.52;41.54;99118.09;7738933;32;36385;-85
2023/08/03 17:48:46;;;;;;;6.40;1.37;;;;;;;24.71;42.78;99128.25;7740049;32;39246;-81
2023/08/03 17:53:02;;;;;;;4.18;1.60;;;;;;;23.79;43.73;99137.88;7739761;32;39694;-81
2023/08/03 17:57:19;;;;;;;5.18;1.23;;;;;;;23.71;44.00;99127.03;7739817;32;38533;-81
2023/08/03 18:01:35;;;;;;;5.65;1.48;;;;;;;23.74;44.25;99124.31;7756221;32;37028;-81
2023/08/03 18:05:51;;;;;;;2.92;1.40;;;;;;;23.86;44.30;99128.06;7766051;32;40107;-79
2023/08/03 18:10:08;;;;;;;3.22;1.58;;;;;;;24.04;43.86;99128.28;7758146;32;39948;-80
2023/08/03 18:14:24;;;;;;;9.60;1.67;;;;;;;24.06;43.94;99126.75;7739573;32;38685;-81
2023/08/03 18:18:45;;;;;;;2.85;1.15;;;;;;;24.07;44.11;99124.75;7739882;32;38100;-81
2023/08/03 18:23:01;;;;;;;4.50;1.20;;;;;;;24.16;44.29;99125.25;7739876;32;40161;-81
2023/08/03 18:27:18;;;;;;;5.12;1.30;;;;;;;24.27;44.14;99131.75;7735417;32;40005;-81
2023/08/03 18:31:35;;;;;;;3.78;1.17;;;;;;;24.33;45.27;99129.44;7751214;32;37739;-82
2023/08/03 18:35:58;;;;;;;3.12;1.45;;;;;;;24.36;43.88;99107.19;7765656;32;37826;-85
2023/08/03 18:40:15;;;;;;;5.60;1.98;;;;;;;24.56;44.19;99118.19;7765404;32;39291;-83
2023/08/03 18:44:32;;;;;;;3.55;1.70;;;;;;;24.69;43.74;99125.06;7765396;32;39037;-82
2023/08/03 18:48:49;;;;;;;4.18;2.40;;;;;;;24.48;43.90;99135.97;7763887;32;37695;-83
2023/08/03 18:53:05;;;;;;;4.90;1.90;;;;;;;24.18;45.29;99145.97;7765914;32;37837;-82
2023/08/03 18:57:21;;;;;;;2.83;1.70;;;;;;;23.97;46.42;99148.47;7765058;32;40083;-83
2023/08/03 19:01:37;;;;;;;6.45;1.87;;;;;;;24.10;45.89;99151.84;7764087;32;39867;-83
2023/08/03 19:05:54;;;;;;;5.18;1.90;;;;;;;24.13;46.07;99153.88;7765551;32;37951;-82
2023/08/03 19:10:11;;;;;;;3.55;1.50;;;;;;;24.09;45.99;99147.44;7765090;32;37032;-83
2023/08/03 19:14:28;;;;;;;4.75;1.60;;;;;;;24.09;46.24;99141.88;7765697;32;38961;-83
2023/08/03 19:18:45;;;;;;;5.40;1.80;;;;;;;24.31;45.79;99142.94;7764676;32;40717;-82
2023/08/03 19:23:03;;;;;;;8.40;2.72;;;;;;;24.04;46.78;99143.00;7765634;32;37352;-84
2023/08/03 19:27:19;;;;;;;8.48;3.50;;;;;;;23.89;47.47;99144.03;7764549;32;37197;-83
2023/08/03 19:31:35;;;;;;;14.38;4.10;;;;;;;23.92;48.03;99138.50;7765004;32;40187;-83
2023/08/03 19:35:52;;;;;;;13.35;5.00;;;;;;;23.84;48.21;99136.81;7765286;32;40767;-83
2023/08/03 19:40:13;;;;;;;12.68;5.47;;;;;;;23.87;48.15;99135.22;7755745;32;38470;-82
2023/08/03 19:44:36;;;;;;;14.27;5.43;;;;;;;23.81;48.07;99143.12;7765456;32;37943;-82
2023/08/03 19:48:53;;;;;;;12.60;3.25;;;;;;;23.85;47.51;99138.38;7764519;32;39552;-83
2023/08/03 19:53:10;;;;;;;8.98;2.55;;;;;;;23.76;48.34;99135.84;7764376;32;39611;-83
2023/08/03 19:57:29;;;;;;;5.43;1.60;;;;;;;23.97;47.62;99154.06;7764437;32;37186;-83
2023/08/03 20:01:49;;;;;;;5.40;2.47;;;;;;;23.85;46.89;99157.88;7750760;32;37288;-82
2023/08/03 20:06:08;;;;;;;7.50;2.90;;;;;;;23.77;48.46;99154.16;7760060;32;38635;-82
2023/08/03 20:10:27;;;;;;;10.40;2.80;;;;;;;23.80;48.70;99170.13;7759844;32;39161;-83